sensor_id;sensor_type;location;lat;lon;timestamp;pressure;altitude;pressure_sealevel;temperature;humidity
59951;BME280;45812;53.540;9.774;2022-09-03T00:00:21;101780.25;;;15.68;59.13
59951;BME280;45812;53.540;9.774;2022-09-03T00:03:02;101773.06;;;15.61;59.25
59951;BME280;45812;53.540;9.774;2022-09-03T00:05:34;101766.31;;;15.57;59.29
59951;BME280;45812;53.540;9.774;2022-09-03T00:08:12;101771.03;;;15.55;59.03
59951;BME280;45812;53.540;9.774;2022-09-03T00:11:10;101764.34;;;15.51;59.16
59951;BME280;45812;53.540;9.774;2022-09-03T00:13:48;101763.00;;;15.47;59.81
59951;BME280;45812;53.540;9.774;2022-09-03T00:16:16;101767.72;;;15.44;59.74
59951;BME280;45812;53.540;9.774;2022-09-03T00:18:49;101770.88;;;15.40;59.83
59951;BME280;45812;53.540;9.774;2022-09-03T00:21:34;101772.25;;;15.36;60.36
59951;BME280;45812;53.540;9.774;2022-09-03T00:24:03;101767.88;;;15.35;60.17
59951;BME280;45812;53.540;9.774;2022-09-03T00:26:33;101771.59;;;15.34;59.63
59951;BME280;45812;53.540;9.774;2022-09-03T00:29:10;101770.25;;;15.30;59.93
59951;BME280;45812;53.540;9.774;2022-09-03T00:31:50;101768.56;;;15.29;59.77
59951;BME280;45812;53.540;9.774;2022-09-03T00:34:31;101774.94;;;15.28;59.56
59951;BME280;45812;53.540;9.774;2022-09-03T00:36:58;101765.53;;;15.24;59.84
59951;BME280;45812;53.540;9.774;2022-09-03T00:39:26;101774.94;;;15.20;60.05
59951;BME280;45812;53.540;9.774;2022-09-03T00:44:53;101773.63;;;15.15;60.08
59951;BME280;45812;53.540;9.774;2022-09-03T00:57:54;101771.09;;;14.98;61.11
59951;BME280;45812;53.540;9.774;2022-09-03T01:00:23;101769.78;;;14.94;61.23
59951;BME280;45812;53.540;9.774;2022-09-03T01:03:03;101769.94;;;14.92;61.31
59951;BME280;45812;53.540;9.774;2022-09-03T01:05:35;101774.63;;;14.98;61.61
59951;BME280;45812;53.540;9.774;2022-09-03T01:08:18;101768.25;;;14.91;61.53
59951;BME280;45812;53.540;9.774;2022-09-03T01:10:55;101768.91;;;14.85;61.82
59951;BME280;45812;53.540;9.774;2022-09-03T01:24:45;101759.72;;;14.71;63.91
59951;BME280;45812;53.540;9.774;2022-09-03T01:30:08;101763.88;;;14.66;63.97
59951;BME280;45812;53.540;9.774;2022-09-03T01:38:15;101757.69;;;14.57;64.19
59951;BME280;45812;53.540;9.774;2022-09-03T01:47:12;101762.50;;;14.45;64.72
59951;BME280;45812;53.540;9.774;2022-09-03T01:49:47;101758.47;;;14.41;64.79
59951;BME280;45812;53.540;9.774;2022-09-03T01:52:20;101758.63;;;14.40;64.94
59951;BME280;45812;53.540;9.774;2022-09-03T01:57:56;101756.94;;;14.39;64.92
59951;BME280;45812;53.540;9.774;2022-09-03T02:00:24;101757.94;;;14.38;64.42
59951;BME280;45812;53.540;9.774;2022-09-03T02:02:51;101754.28;;;14.39;64.86
59951;BME280;45812;53.540;9.774;2022-09-03T02:07:48;101749.59;;;14.33;64.80
59951;BME280;45812;53.540;9.774;2022-09-03T02:10:31;101755.94;;;14.32;65.00
59951;BME280;45812;53.540;9.774;2022-09-03T02:13:04;101753.56;;;14.29;65.38
59951;BME280;45812;53.540;9.774;2022-09-03T02:15:31;101760.75;;;14.28;65.21
59951;BME280;45812;53.540;9.774;2022-09-03T02:18:02;101760.41;;;14.23;65.08
59951;BME280;45812;53.540;9.774;2022-09-03T02:20:30;101757.06;;;14.21;65.20
59951;BME280;45812;53.540;9.774;2022-09-03T02:22:57;101751.88;;;14.19;65.20
59951;BME280;45812;53.540;9.774;2022-09-03T02:25:28;101762.75;;;14.18;65.44
59951;BME280;45812;53.540;9.774;2022-09-03T02:27:54;101764.94;;;14.14;65.08
59951;BME280;45812;53.540;9.774;2022-09-03T02:30:19;101763.09;;;14.15;65.01
59951;BME280;45812;53.540;9.774;2022-09-03T02:32:44;101764.09;;;14.14;65.25
59951;BME280;45812;53.540;9.774;2022-09-03T02:35:10;101758.03;;;14.12;65.39
59951;BME280;45812;53.540;9.774;2022-09-03T02:37:36;101755.84;;;14.07;65.48
59951;BME280;45812;53.540;9.774;2022-09-03T02:40:02;101762.19;;;14.06;65.69
59951;BME280;45812;53.540;9.774;2022-09-03T02:42:31;101747.47;;;14.02;66.04
59951;BME280;45812;53.540;9.774;2022-09-03T02:45:00;101755.84;;;13.99;65.88
59951;BME280;45812;53.540;9.774;2022-09-03T02:47:30;101752.31;;;13.99;65.89
59951;BME280;45812;53.540;9.774;2022-09-03T02:49:57;101755.31;;;13.96;66.13
59951;BME280;45812;53.540;9.774;2022-09-03T02:52:22;101764.34;;;13.94;66.34
59951;BME280;45812;53.540;9.774;2022-09-03T02:54:47;101755.31;;;13.96;66.21
59951;BME280;45812;53.540;9.774;2022-09-03T02:57:15;101754.63;;;13.93;66.25
59951;BME280;45812;53.540;9.774;2022-09-03T02:59:42;101755.78;;;13.91;66.41
59951;BME280;45812;53.540;9.774;2022-09-03T03:02:10;101749.91;;;13.87;67.04
59951;BME280;45812;53.540;9.774;2022-09-03T03:04:36;101749.25;;;13.85;66.99
59951;BME280;45812;53.540;9.774;2022-09-03T03:07:01;101745.06;;;13.83;67.44
59951;BME280;45812;53.540;9.774;2022-09-03T03:09:26;101750.72;;;13.80;67.32
59951;BME280;45812;53.540;9.774;2022-09-03T03:11:53;101756.25;;;13.78;67.23
59951;BME280;45812;53.540;9.774;2022-09-03T03:14:20;101754.56;;;13.77;67.29
59951;BME280;45812;53.540;9.774;2022-09-03T03:16:46;101758.38;;;13.75;67.36
59951;BME280;45812;53.540;9.774;2022-09-03T03:19:12;101758.53;;;13.73;67.39
59951;BME280;45812;53.540;9.774;2022-09-03T03:21:37;101762.38;;;13.71;67.54
59951;BME280;45812;53.540;9.774;2022-09-03T03:24:03;101759.19;;;13.67;67.73
59951;BME280;45812;53.540;9.774;2022-09-03T03:26:28;101767.38;;;13.66;68.01
59951;BME280;45812;53.540;9.774;2022-09-03T03:28:58;101770.38;;;13.62;68.38
59951;BME280;45812;53.540;9.774;2022-09-03T03:31:25;101766.88;;;13.62;68.21
59951;BME280;45812;53.540;9.774;2022-09-03T03:33:55;101766.47;;;13.57;68.54
59951;BME280;45812;53.540;9.774;2022-09-03T03:36:23;101761.28;;;13.55;68.45
59951;BME280;45812;53.540;9.774;2022-09-03T03:38:52;101766.97;;;13.52;68.63
59951;BME280;45812;53.540;9.774;2022-09-03T03:41:21;101775.81;;;13.53;69.04
59951;BME280;45812;53.540;9.774;2022-09-03T03:43:47;101776.00;;;13.51;69.12
59951;BME280;45812;53.540;9.774;2022-09-03T03:46:16;101778.81;;;13.50;69.45
59951;BME280;45812;53.540;9.774;2022-09-03T03:48:41;101785.31;;;13.47;69.23
59951;BME280;45812;53.540;9.774;2022-09-03T03:51:08;101780.47;;;13.43;69.14
59951;BME280;45812;53.540;9.774;2022-09-03T03:53:36;101783.28;;;13.41;69.81
59951;BME280;45812;53.540;9.774;2022-09-03T03:56:05;101788.09;;;13.38;69.78
59951;BME280;45812;53.540;9.774;2022-09-03T03:58:32;101779.56;;;13.34;69.43
59951;BME280;45812;53.540;9.774;2022-09-03T04:01:09;101778.72;;;13.33;69.27
59951;BME280;45812;53.540;9.774;2022-09-03T04:03:35;101785.72;;;13.34;69.15
59951;BME280;45812;53.540;9.774;2022-09-03T04:06:01;101787.72;;;13.32;69.26
59951;BME280;45812;53.540;9.774;2022-09-03T04:08:27;101786.88;;;13.32;69.29
59951;BME280;45812;53.540;9.774;2022-09-03T04:10:53;101789.03;;;13.28;69.64
59951;BME280;45812;53.540;9.774;2022-09-03T04:13:18;101791.03;;;13.26;69.72
59951;BME280;45812;53.540;9.774;2022-09-03T04:15:44;101784.19;;;13.24;69.53
59951;BME280;45812;53.540;9.774;2022-09-03T04:18:09;101775.47;;;13.22;69.60
59951;BME280;45812;53.540;9.774;2022-09-03T04:20:35;101775.75;;;13.19;69.58
59951;BME280;45812;53.540;9.774;2022-09-03T04:23:02;101779.28;;;13.19;70.32
59951;BME280;45812;53.540;9.774;2022-09-03T04:25:27;101772.38;;;13.17;70.68
59951;BME280;45812;53.540;9.774;2022-09-03T04:27:53;101774.38;;;13.15;71.22
59951;BME280;45812;53.540;9.774;2022-09-03T04:30:19;101776.19;;;13.14;71.29
59951;BME280;45812;53.540;9.774;2022-09-03T04:32:45;101776.53;;;13.11;71.38
59951;BME280;45812;53.540;9.774;2022-09-03T04:35:24;101779.66;;;13.07;71.62
59951;BME280;45812;53.540;9.774;2022-09-03T04:37:50;101778.66;;;13.08;71.46
59951;BME280;45812;53.540;9.774;2022-09-03T04:40:16;101785.16;;;13.05;71.42
59951;BME280;45812;53.540;9.774;2022-09-03T04:42:41;101779.13;;;13.03;71.65
59951;BME280;45812;53.540;9.774;2022-09-03T04:45:07;101783.50;;;13.04;71.27
59951;BME280;45812;53.540;9.774;2022-09-03T04:47:33;101782.66;;;13.03;71.08
59951;BME280;45812;53.540;9.774;2022-09-03T04:50:02;101782.66;;;13.03;71.05
59951;BME280;45812;53.540;9.774;2022-09-03T04:52:28;101785.16;;;13.05;71.70
59951;BME280;45812;53.540;9.774;2022-09-03T04:54:57;101783.19;;;13.07;71.69
59951;BME280;45812;53.540;9.774;2022-09-03T04:57:23;101786.69;;;13.08;71.45
59951;BME280;45812;53.540;9.774;2022-09-03T04:59:48;101784.84;;;13.08;71.25
59951;BME280;45812;53.540;9.774;2022-09-03T05:02:13;101794.38;;;13.11;71.33
59951;BME280;45812;53.540;9.774;2022-09-03T05:04:40;101789.88;;;13.11;71.17
59951;BME280;45812;53.540;9.774;2022-09-03T05:07:06;101786.06;;;13.14;71.44
59951;BME280;45812;53.540;9.774;2022-09-03T05:09:31;101793.63;;;13.18;71.65
59951;BME280;45812;53.540;9.774;2022-09-03T05:11:57;101792.34;;;13.22;71.27
59951;BME280;45812;53.540;9.774;2022-09-03T05:14:22;101786.38;;;13.28;70.61
59951;BME280;45812;53.540;9.774;2022-09-03T05:16:47;101785.22;;;13.31;70.57
59951;BME280;45812;53.540;9.774;2022-09-03T05:19:13;101789.09;;;13.37;70.58
59951;BME280;45812;53.540;9.774;2022-09-03T05:21:38;101785.41;;;13.38;70.49
59951;BME280;45812;53.540;9.774;2022-09-03T05:24:04;101789.78;;;13.39;70.89
59951;BME280;45812;53.540;9.774;2022-09-03T05:26:35;101778.09;;;13.40;70.62
59951;BME280;45812;53.540;9.774;2022-09-03T05:29:02;101779.47;;;13.44;70.99
59951;BME280;45812;53.540;9.774;2022-09-03T05:31:31;101779.97;;;13.47;70.47
59951;BME280;45812;53.540;9.774;2022-09-03T05:33:59;101778.81;;;13.50;70.22
59951;BME280;45812;53.540;9.774;2022-09-03T05:36:30;101774.81;;;13.54;69.60
59951;BME280;45812;53.540;9.774;2022-09-03T05:38:57;101778.56;;;13.61;69.06
59951;BME280;45812;53.540;9.774;2022-09-03T05:41:23;101783.59;;;13.64;68.95
59951;BME280;45812;53.540;9.774;2022-09-03T05:43:50;101788.47;;;13.69;68.37
59951;BME280;45812;53.540;9.774;2022-09-03T05:46:19;101794.84;;;13.76;67.52
59951;BME280;45812;53.540;9.774;2022-09-03T05:48:45;101782.00;;;13.79;67.26
59951;BME280;45812;53.540;9.774;2022-09-03T05:51:12;101793.75;;;13.86;67.10
59951;BME280;45812;53.540;9.774;2022-09-03T05:53:43;101791.75;;;13.88;66.46
59951;BME280;45812;53.540;9.774;2022-09-03T05:56:13;101794.09;;;13.91;66.72
59951;BME280;45812;53.540;9.774;2022-09-03T05:58:43;101789.78;;;13.99;66.67
59951;BME280;45812;53.540;9.774;2022-09-03T06:01:20;101792.47;;;13.99;67.60
59951;BME280;45812;53.540;9.774;2022-09-03T06:03:53;101793.97;;;14.01;66.99
59951;BME280;45812;53.540;9.774;2022-09-03T06:06:19;101775.59;;;14.06;66.97
59951;BME280;45812;53.540;9.774;2022-09-03T06:08:48;101789.66;;;14.08;67.30
59951;BME280;45812;53.540;9.774;2022-09-03T06:11:15;101782.84;;;14.14;66.67
59951;BME280;45812;53.540;9.774;2022-09-03T06:13:41;101786.84;;;14.18;66.46
59951;BME280;45812;53.540;9.774;2022-09-03T06:16:06;101790.88;;;14.22;66.22
59951;BME280;45812;53.540;9.774;2022-09-03T06:18:32;101788.38;;;14.29;66.60
59951;BME280;45812;53.540;9.774;2022-09-03T06:21:03;101774.69;;;14.32;66.17
59951;BME280;45812;53.540;9.774;2022-09-03T06:23:30;101788.59;;;14.35;65.55
59951;BME280;45812;53.540;9.774;2022-09-03T06:26:05;101783.28;;;14.43;65.29
59951;BME280;45812;53.540;9.774;2022-09-03T06:28:32;101787.13;;;14.49;64.87
59951;BME280;45812;53.540;9.774;2022-09-03T06:31:03;101781.97;;;14.56;65.09
59951;BME280;45812;53.540;9.774;2022-09-03T06:33:31;101788.00;;;14.58;64.44
59951;BME280;45812;53.540;9.774;2022-09-03T06:36:00;101786.66;;;14.62;64.61
59951;BME280;45812;53.540;9.774;2022-09-03T06:38:27;101790.66;;;14.66;65.07
59951;BME280;45812;53.540;9.774;2022-09-03T06:40:58;101788.53;;;14.69;65.03
59951;BME280;45812;53.540;9.774;2022-09-03T06:43:29;101787.69;;;14.77;64.19
59951;BME280;45812;53.540;9.774;2022-09-03T06:46:00;101794.38;;;14.81;64.48
59951;BME280;45812;53.540;9.774;2022-09-03T06:48:26;101792.19;;;14.84;64.58
59951;BME280;45812;53.540;9.774;2022-09-03T06:53:25;101798.75;;;14.98;64.07
59951;BME280;45812;53.540;9.774;2022-09-03T06:56:05;101798.25;;;15.03;64.99
59951;BME280;45812;53.540;9.774;2022-09-03T06:58:35;101793.25;;;15.08;63.59
59951;BME280;45812;53.540;9.774;2022-09-03T07:01:10;101793.41;;;15.14;63.77
59951;BME280;45812;53.540;9.774;2022-09-03T07:03:38;101789.84;;;15.22;63.43
59951;BME280;45812;53.540;9.774;2022-09-03T07:06:08;101798.25;;;15.27;63.47
59951;BME280;45812;53.540;9.774;2022-09-03T07:08:35;101801.09;;;15.34;63.42
59951;BME280;45812;53.540;9.774;2022-09-03T07:11:05;101798.56;;;15.40;62.63
59951;BME280;45812;53.540;9.774;2022-09-03T07:13:34;101793.38;;;15.47;62.77
59951;BME280;45812;53.540;9.774;2022-09-03T07:16:08;101790.00;;;15.53;61.98
59951;BME280;45812;53.540;9.774;2022-09-03T07:18:34;101792.66;;;15.61;62.13
59951;BME280;45812;53.540;9.774;2022-09-03T07:21:02;101794.69;;;15.67;61.07
59951;BME280;45812;53.540;9.774;2022-09-03T07:23:28;101798.00;;;15.78;61.38
59951;BME280;45812;53.540;9.774;2022-09-03T07:25:59;101791.31;;;15.82;62.12
59951;BME280;45812;53.540;9.774;2022-09-03T07:28:27;101797.28;;;15.92;61.63
59951;BME280;45812;53.540;9.774;2022-09-03T07:30:54;101789.22;;;16.00;62.13
59951;BME280;45812;53.540;9.774;2022-09-03T07:33:24;101790.66;;;16.11;61.21
59951;BME280;45812;53.540;9.774;2022-09-03T07:35:50;101790.97;;;16.16;61.04
59951;BME280;45812;53.540;9.774;2022-09-03T07:38:17;101793.47;;;16.25;59.85
59951;BME280;45812;53.540;9.774;2022-09-03T07:40:44;101789.88;;;16.33;59.87
59951;BME280;45812;53.540;9.774;2022-09-03T07:43:09;101790.50;;;16.43;60.37
59951;BME280;45812;53.540;9.774;2022-09-03T07:45:34;101790.63;;;16.50;58.94
59951;BME280;45812;53.540;9.774;2022-09-03T07:47:59;101789.41;;;16.60;59.42
59951;BME280;45812;53.540;9.774;2022-09-03T07:50:25;101784.47;;;16.72;58.87
59951;BME280;45812;53.540;9.774;2022-09-03T07:52:57;101781.72;;;16.80;59.28
59951;BME280;45812;53.540;9.774;2022-09-03T07:55:23;101793.06;;;16.90;56.91
59951;BME280;45812;53.540;9.774;2022-09-03T07:57:48;101789.66;;;16.97;57.64
59951;BME280;45812;53.540;9.774;2022-09-03T08:00:14;101787.56;;;17.07;58.31
59951;BME280;45812;53.540;9.774;2022-09-03T08:02:39;101786.47;;;17.16;58.49
59951;BME280;45812;53.540;9.774;2022-09-03T08:05:05;101792.44;;;17.26;57.82
59951;BME280;45812;53.540;9.774;2022-09-03T08:07:31;101788.19;;;17.32;56.32
59951;BME280;45812;53.540;9.774;2022-09-03T08:09:57;101789.59;;;17.42;55.78
59951;BME280;45812;53.540;9.774;2022-09-03T08:12:23;101785.34;;;17.48;54.73
59951;BME280;45812;53.540;9.774;2022-09-03T08:14:48;101782.81;;;17.61;55.48
59951;BME280;45812;53.540;9.774;2022-09-03T08:17:14;101778.03;;;17.71;54.56
59951;BME280;45812;53.540;9.774;2022-09-03T08:19:39;101785.00;;;17.80;56.14
59951;BME280;45812;53.540;9.774;2022-09-03T08:22:06;101776.84;;;17.89;54.38
59951;BME280;45812;53.540;9.774;2022-09-03T08:24:32;101786.94;;;18.01;54.47
59951;BME280;45812;53.540;9.774;2022-09-03T08:26:58;101783.97;;;18.11;52.94
59951;BME280;45812;53.540;9.774;2022-09-03T08:29:23;101779.38;;;18.26;53.28
59951;BME280;45812;53.540;9.774;2022-09-03T08:31:49;101777.50;;;18.41;52.99
59951;BME280;45812;53.540;9.774;2022-09-03T08:34:14;101780.09;;;18.56;52.15
59951;BME280;45812;53.540;9.774;2022-09-03T08:36:41;101779.91;;;18.72;52.23
59951;BME280;45812;53.540;9.774;2022-09-03T08:39:09;101780.44;;;18.83;52.72
59951;BME280;45812;53.540;9.774;2022-09-03T08:41:47;101775.13;;;18.96;51.76
59951;BME280;45812;53.540;9.774;2022-09-03T08:52:12;101774.28;;;19.45;50.40
59951;BME280;45812;53.540;9.774;2022-09-03T08:54:43;101763.72;;;19.50;48.61
59951;BME280;45812;53.540;9.774;2022-09-03T08:57:09;101770.13;;;19.42;49.01
59951;BME280;45812;53.540;9.774;2022-09-03T08:59:35;101779.00;;;19.36;49.64
59951;BME280;45812;53.540;9.774;2022-09-03T09:02:09;101781.75;;;19.43;48.77
59951;BME280;45812;53.540;9.774;2022-09-03T09:07:30;101777.66;;;19.81;48.02
59951;BME280;45812;53.540;9.774;2022-09-03T09:16:07;101779.63;;;20.62;46.12
59951;BME280;45812;53.540;9.774;2022-09-03T09:21:10;101772.81;;;21.18;43.88
59951;BME280;45812;53.540;9.774;2022-09-03T09:24:01;101774.69;;;21.51;42.25
59951;BME280;45812;53.540;9.774;2022-09-03T09:26:28;101771.03;;;21.90;42.14
59951;BME280;45812;53.540;9.774;2022-09-03T09:28:57;101773.50;;;22.50;40.78
59951;BME280;45812;53.540;9.774;2022-09-03T09:31:24;101763.66;;;24.28;38.57
59951;BME280;45812;53.540;9.774;2022-09-03T09:33:50;101761.38;;;27.04;32.93
59951;BME280;45812;53.540;9.774;2022-09-03T09:36:16;101759.53;;;28.85;28.39
59951;BME280;45812;53.540;9.774;2022-09-03T09:38:44;101758.22;;;29.30;27.08
59951;BME280;45812;53.540;9.774;2022-09-03T09:41:18;101762.81;;;30.13;26.45
59951;BME280;45812;53.540;9.774;2022-09-03T09:43:45;101755.22;;;31.27;25.17
59951;BME280;45812;53.540;9.774;2022-09-03T09:46:21;101761.91;;;31.91;24.08
59951;BME280;45812;53.540;9.774;2022-09-03T09:48:50;101760.94;;;32.21;22.97
59951;BME280;45812;53.540;9.774;2022-09-03T09:51:24;101756.00;;;32.13;22.48
59951;BME280;45812;53.540;9.774;2022-09-03T09:54:11;101750.28;;;30.68;24.24
59951;BME280;45812;53.540;9.774;2022-09-03T09:56:37;101744.75;;;29.23;25.83
59951;BME280;45812;53.540;9.774;2022-09-03T09:59:04;101746.53;;;27.72;28.50
59951;BME280;45812;53.540;9.774;2022-09-03T10:01:30;101746.34;;;26.90;29.35
59951;BME280;45812;53.540;9.774;2022-09-03T10:04:06;101749.94;;;26.17;30.83
59951;BME280;45812;53.540;9.774;2022-09-03T10:06:32;101752.72;;;26.05;32.33
59951;BME280;45812;53.540;9.774;2022-09-03T10:09:19;101757.34;;;26.05;32.63
59951;BME280;45812;53.540;9.774;2022-09-03T10:14:59;101734.34;;;27.25;29.69
59951;BME280;45812;53.540;9.774;2022-09-03T10:17:46;101735.22;;;28.93;26.38
59951;BME280;45812;53.540;9.774;2022-09-03T10:20:18;101736.00;;;30.87;24.15
59951;BME280;45812;53.540;9.774;2022-09-03T10:26:08;101728.34;;;36.82;17.82
59951;BME280;45812;53.540;9.774;2022-09-03T10:28:38;101728.00;;;38.71;15.96
59951;BME280;45812;53.540;9.774;2022-09-03T10:31:34;101720.00;;;39.55;15.00
59951;BME280;45812;53.540;9.774;2022-09-03T10:34:11;101722.53;;;39.98;14.61
59951;BME280;45812;53.540;9.774;2022-09-03T10:39:18;101710.38;;;41.75;13.57
59951;BME280;45812;53.540;9.774;2022-09-03T10:47:41;101707.56;;;44.04;11.17
59951;BME280;45812;53.540;9.774;2022-09-03T10:50:16;101693.00;;;44.57;10.71
59951;BME280;45812;53.540;9.774;2022-09-03T10:55:45;101696.78;;;45.14;10.18
59951;BME280;45812;53.540;9.774;2022-09-03T11:03:43;101681.44;;;46.58;9.45
59951;BME280;45812;53.540;9.774;2022-09-03T11:06:39;101690.47;;;45.73;9.90
59951;BME280;45812;53.540;9.774;2022-09-03T11:12:04;101681.38;;;44.58;10.49
59951;BME280;45812;53.540;9.774;2022-09-03T11:14:39;101675.16;;;45.18;10.37
59951;BME280;45812;53.540;9.774;2022-09-03T11:17:11;101672.00;;;46.39;9.94
59951;BME280;45812;53.540;9.774;2022-09-03T11:19:50;101675.44;;;46.63;10.01
59951;BME280;45812;53.540;9.774;2022-09-03T11:22:18;101677.59;;;47.24;8.93
59951;BME280;45812;53.540;9.774;2022-09-03T11:24:50;101664.22;;;41.81;12.12
59951;BME280;45812;53.540;9.774;2022-09-03T11:30:08;101659.59;;;43.36;11.89
59951;BME280;45812;53.540;9.774;2022-09-03T11:32:56;101670.53;;;44.57;10.62
59951;BME280;45812;53.540;9.774;2022-09-03T11:35:41;101678.06;;;46.86;8.94
59951;BME280;45812;53.540;9.774;2022-09-03T11:38:19;101655.66;;;44.79;9.71
59951;BME280;45812;53.540;9.774;2022-09-03T11:41:23;101658.84;;;40.66;11.54
59951;BME280;45812;53.540;9.774;2022-09-03T11:43:50;101652.09;;;37.19;14.20
59951;BME280;45812;53.540;9.774;2022-09-03T11:48:55;101651.34;;;41.03;12.17
59951;BME280;45812;53.540;9.774;2022-09-03T11:53:58;101649.19;;;45.24;9.10
59951;BME280;45812;53.540;9.774;2022-09-03T11:56:24;101654.03;;;42.45;10.22
59951;BME280;45812;53.540;9.774;2022-09-03T11:59:02;101650.94;;;41.78;11.42
59951;BME280;45812;53.540;9.774;2022-09-03T12:01:28;101638.66;;;41.18;11.39
59951;BME280;45812;53.540;9.774;2022-09-03T12:04:04;101644.09;;;42.03;10.62
59951;BME280;45812;53.540;9.774;2022-09-03T12:09:50;101639.19;;;46.61;8.67
59951;BME280;45812;53.540;9.774;2022-09-03T12:20:14;101646.75;;;46.98;8.03
59951;BME280;45812;53.540;9.774;2022-09-03T12:22:40;101643.22;;;46.60;8.15
59951;BME280;45812;53.540;9.774;2022-09-03T12:25:11;101624.22;;;45.49;8.67
59951;BME280;45812;53.540;9.774;2022-09-03T12:27:37;101640.38;;;44.54;9.73
59951;BME280;45812;53.540;9.774;2022-09-03T12:30:03;101630.09;;;45.37;9.14
59951;BME280;45812;53.540;9.774;2022-09-03T12:32:34;101626.91;;;45.69;9.00
59951;BME280;45812;53.540;9.774;2022-09-03T12:35:13;101623.47;;;45.52;8.91
59951;BME280;45812;53.540;9.774;2022-09-03T12:37:41;101628.06;;;47.30;8.61
59951;BME280;45812;53.540;9.774;2022-09-03T12:40:16;101627.66;;;47.35;7.93
59951;BME280;45812;53.540;9.774;2022-09-03T12:42:42;101626.06;;;46.35;8.39
59951;BME280;45812;53.540;9.774;2022-09-03T12:45:08;101617.03;;;43.88;9.88
59951;BME280;45812;53.540;9.774;2022-09-03T12:47:39;101618.66;;;41.04;12.27
59951;BME280;45812;53.540;9.774;2022-09-03T12:50:11;101619.78;;;38.61;13.57
59951;BME280;45812;53.540;9.774;2022-09-03T12:52:38;101616.53;;;37.21;14.99
59951;BME280;45812;53.540;9.774;2022-09-03T12:55:37;101597.00;;;38.76;13.93
59951;BME280;45812;53.540;9.774;2022-09-03T12:58:32;101608.56;;;42.20;11.77
59951;BME280;45812;53.540;9.774;2022-09-03T13:01:26;101606.50;;;44.66;9.94
59951;BME280;45812;53.540;9.774;2022-09-03T13:04:08;101592.78;;;46.48;8.77
59951;BME280;45812;53.540;9.774;2022-09-03T13:06:51;101596.97;;;45.53;9.39
59951;BME280;45812;53.540;9.774;2022-09-03T13:09:23;101599.81;;;46.24;8.26
59951;BME280;45812;53.540;9.774;2022-09-03T13:11:50;101601.38;;;46.62;8.10
59951;BME280;45812;53.540;9.774;2022-09-03T13:14:16;101604.06;;;45.74;8.46
59951;BME280;45812;53.540;9.774;2022-09-03T13:19:14;101607.28;;;46.09;8.35
59951;BME280;45812;53.540;9.774;2022-09-03T13:29:38;101590.13;;;48.36;7.45
59951;BME280;45812;53.540;9.774;2022-09-03T13:32:28;101597.75;;;47.13;7.94
59951;BME280;45812;53.540;9.774;2022-09-03T13:35:03;101589.09;;;45.36;8.60
59951;BME280;45812;53.540;9.774;2022-09-03T13:37:39;101587.16;;;46.48;8.66
59951;BME280;45812;53.540;9.774;2022-09-03T13:42:41;101589.19;;;42.27;11.00
59951;BME280;45812;53.540;9.774;2022-09-03T13:45:37;101585.41;;;44.53;10.05
59951;BME280;45812;53.540;9.774;2022-09-03T13:51:30;101584.88;;;44.24;9.71
59951;BME280;45812;53.540;9.774;2022-09-03T13:54:00;101587.03;;;46.34;8.78
59951;BME280;45812;53.540;9.774;2022-09-03T13:56:41;101579.00;;;47.53;7.66
59951;BME280;45812;53.540;9.774;2022-09-03T13:59:18;101578.78;;;48.04;7.32
59951;BME280;45812;53.540;9.774;2022-09-03T14:05:03;101584.06;;;46.64;8.05
59951;BME280;45812;53.540;9.774;2022-09-03T14:07:39;101587.25;;;45.77;9.19
59951;BME280;45812;53.540;9.774;2022-09-03T14:10:26;101585.91;;;46.90;7.83
59951;BME280;45812;53.540;9.774;2022-09-03T14:15:42;101574.28;;;47.02;7.30
59951;BME280;45812;53.540;9.774;2022-09-03T14:18:22;101571.44;;;47.82;7.34
59951;BME280;45812;53.540;9.774;2022-09-03T14:21:08;101563.59;;;49.60;6.73
59951;BME280;45812;53.540;9.774;2022-09-03T14:26:03;101566.53;;;49.39;6.11
59951;BME280;45812;53.540;9.774;2022-09-03T14:28:33;101572.66;;;49.20;6.86
59951;BME280;45812;53.540;9.774;2022-09-03T14:33:46;101559.41;;;48.95;7.43
59951;BME280;45812;53.540;9.774;2022-09-03T14:45:00;101560.06;;;47.50;7.42
59951;BME280;45812;53.540;9.774;2022-09-03T14:50:55;101551.28;;;47.83;7.74
59951;BME280;45812;53.540;9.774;2022-09-03T14:56:36;101557.38;;;48.10;7.52
59951;BME280;45812;53.540;9.774;2022-09-03T15:01:47;101565.06;;;48.03;7.29
59951;BME280;45812;53.540;9.774;2022-09-03T15:07:15;101564.72;;;47.17;7.85
59951;BME280;45812;53.540;9.774;2022-09-03T15:09:53;101554.66;;;46.58;7.96
59951;BME280;45812;53.540;9.774;2022-09-03T15:12:33;101558.03;;;46.78;7.62
59951;BME280;45812;53.540;9.774;2022-09-03T15:15:04;101552.72;;;44.64;8.87
59951;BME280;45812;53.540;9.774;2022-09-03T15:17:46;101551.00;;;42.98;10.48
59951;BME280;45812;53.540;9.774;2022-09-03T15:29:06;101555.97;;;45.52;8.32
59951;BME280;45812;53.540;9.774;2022-09-03T15:35:27;101564.81;;;45.84;7.88
59951;BME280;45812;53.540;9.774;2022-09-03T15:37:52;101570.75;;;46.13;7.78
59951;BME280;45812;53.540;9.774;2022-09-03T15:40:29;101564.03;;;46.28;7.90
59951;BME280;45812;53.540;9.774;2022-09-03T15:43:06;101563.63;;;45.89;7.90
59951;BME280;45812;53.540;9.774;2022-09-03T15:45:39;101562.53;;;45.97;7.49
59951;BME280;45812;53.540;9.774;2022-09-03T15:53:49;101564.22;;;45.08;8.21
59951;BME280;45812;53.540;9.774;2022-09-03T15:56:27;101570.22;;;45.37;8.47
59951;BME280;45812;53.540;9.774;2022-09-03T15:59:11;101560.41;;;45.23;8.62
59951;BME280;45812;53.540;9.774;2022-09-03T16:01:51;101568.47;;;44.72;8.99
59951;BME280;45812;53.540;9.774;2022-09-03T16:04:26;101568.63;;;44.33;9.06
59951;BME280;45812;53.540;9.774;2022-09-03T16:15:12;101567.97;;;44.21;9.01
59951;BME280;45812;53.540;9.774;2022-09-03T16:18:03;101569.03;;;43.70;9.02